sensor_id;sensor_type;location;lat;lon;timestamp;P1;durP1;ratioP1;P2;durP2;ratioP2
11743;SDS011;5929;51.906;7.674;2023-05-19T00:02:17;13.13;;;4.90;;
11743;SDS011;5929;51.906;7.674;2023-05-19T00:04:45;13.13;;;4.97;;
11743;SDS011;5929;51.906;7.674;2023-05-19T00:07:14;9.80;;;4.70;;
11743;SDS011;5929;51.906;7.674;2023-05-19T00:09:43;12.40;;;5.57;;
11743;SDS011;5929;51.906;7.674;2023-05-19T00:12:11;12.85;;;5.30;;
11743;SDS011;5929;51.906;7.674;2023-05-19T00:14:39;9.77;;;5.22;;
11743;SDS011;5929;51.906;7.674;2023-05-19T00:17:08;11.20;;;5.25;;
11743;SDS011;5929;51.906;7.674;2023-05-19T00:19:35;13.75;;;6.20;;
11743;SDS011;5929;51.906;7.674;2023-05-19T00:22:02;9.52;;;5.10;;
11743;SDS011;5929;51.906;7.674;2023-05-19T00:24:30;10.02;;;5.20;;
11743;SDS011;5929;51.906;7.674;2023-05-19T00:26:57;13.90;;;5.47;;
11743;SDS011;5929;51.906;7.674;2023-05-19T00:29:23;9.63;;;5.00;;
11743;SDS011;5929;51.906;7.674;2023-05-19T00:31:50;13.45;;;5.53;;
11743;SDS011;5929;51.906;7.674;2023-05-19T00:34:18;11.75;;;5.60;;
11743;SDS011;5929;51.906;7.674;2023-05-19T00:36:45;12.38;;;5.22;;
11743;SDS011;5929;51.906;7.674;2023-05-19T00:39:12;11.13;;;5.32;;
11743;SDS011;5929;51.906;7.674;2023-05-19T00:41:39;13.77;;;5.70;;
11743;SDS011;5929;51.906;7.674;2023-05-19T00:44:06;12.95;;;5.82;;
11743;SDS011;5929;51.906;7.674;2023-05-19T00:46:33;10.25;;;5.40;;
11743;SDS011;5929;51.906;7.674;2023-05-19T00:49:00;14.45;;;6.70;;
11743;SDS011;5929;51.906;7.674;2023-05-19T00:51:28;10.20;;;5.60;;
11743;SDS011;5929;51.906;7.674;2023-05-19T00:53:56;11.50;;;5.63;;
11743;SDS011;5929;51.906;7.674;2023-05-19T00:56:23;14.18;;;5.75;;
11743;SDS011;5929;51.906;7.674;2023-05-19T00:58:53;11.45;;;5.80;;
11743;SDS011;5929;51.906;7.674;2023-05-19T01:01:20;13.13;;;5.72;;
11743;SDS011;5929;51.906;7.674;2023-05-19T01:03:47;10.73;;;5.75;;
11743;SDS011;5929;51.906;7.674;2023-05-19T01:06:17;18.40;;;6.55;;
11743;SDS011;5929;51.906;7.674;2023-05-19T01:08:46;12.52;;;6.55;;
11743;SDS011;5929;51.906;7.674;2023-05-19T01:11:13;13.23;;;6.43;;
11743;SDS011;5929;51.906;7.674;2023-05-19T01:13:39;11.68;;;6.65;;
11743;SDS011;5929;51.906;7.674;2023-05-19T01:16:08;12.05;;;6.05;;
11743;SDS011;5929;51.906;7.674;2023-05-19T01:18:42;14.10;;;6.93;;
11743;SDS011;5929;51.906;7.674;2023-05-19T01:21:19;12.45;;;6.32;;
11743;SDS011;5929;51.906;7.674;2023-05-19T01:24:08;13.18;;;7.25;;
11743;SDS011;5929;51.906;7.674;2023-05-19T01:26:53;15.45;;;7.43;;
11743;SDS011;5929;51.906;7.674;2023-05-19T01:29:39;14.00;;;6.22;;
11743;SDS011;5929;51.906;7.674;2023-05-19T01:32:09;14.55;;;6.78;;
11743;SDS011;5929;51.906;7.674;2023-05-19T01:34:39;11.55;;;6.40;;
11743;SDS011;5929;51.906;7.674;2023-05-19T01:37:08;10.15;;;6.18;;
11743;SDS011;5929;51.906;7.674;2023-05-19T01:39:36;16.65;;;7.40;;
11743;SDS011;5929;51.906;7.674;2023-05-19T01:42:05;13.38;;;7.13;;
11743;SDS011;5929;51.906;7.674;2023-05-19T01:44:33;14.98;;;7.38;;
11743;SDS011;5929;51.906;7.674;2023-05-19T01:46:59;12.63;;;7.20;;
11743;SDS011;5929;51.906;7.674;2023-05-19T01:49:29;13.52;;;7.35;;
11743;SDS011;5929;51.906;7.674;2023-05-19T01:51:55;12.77;;;7.20;;
11743;SDS011;5929;51.906;7.674;2023-05-19T01:54:22;12.13;;;7.15;;
11743;SDS011;5929;51.906;7.674;2023-05-19T01:56:51;15.88;;;8.00;;
11743;SDS011;5929;51.906;7.674;2023-05-19T01:59:27;13.70;;;7.20;;
11743;SDS011;5929;51.906;7.674;2023-05-19T02:02:03;14.75;;;7.95;;
11743;SDS011;5929;51.906;7.674;2023-05-19T02:04:37;12.98;;;7.53;;
11743;SDS011;5929;51.906;7.674;2023-05-19T02:07:11;14.40;;;7.78;;
11743;SDS011;5929;51.906;7.674;2023-05-19T02:09:47;18.00;;;8.38;;
11743;SDS011;5929;51.906;7.674;2023-05-19T02:12:18;14.88;;;8.85;;
11743;SDS011;5929;51.906;7.674;2023-05-19T02:14:49;13.93;;;7.72;;
11743;SDS011;5929;51.906;7.674;2023-05-19T02:17:24;13.38;;;7.65;;
11743;SDS011;5929;51.906;7.674;2023-05-19T02:19:58;12.13;;;8.43;;
11743;SDS011;5929;51.906;7.674;2023-05-19T02:22:25;19.63;;;8.73;;
11743;SDS011;5929;51.906;7.674;2023-05-19T02:24:52;13.52;;;8.85;;
11743;SDS011;5929;51.906;7.674;2023-05-19T02:27:20;13.90;;;7.22;;
11743;SDS011;5929;51.906;7.674;2023-05-19T02:29:47;15.32;;;8.45;;
11743;SDS011;5929;51.906;7.674;2023-05-19T02:32:16;12.93;;;8.25;;
11743;SDS011;5929;51.906;7.674;2023-05-19T02:34:43;19.77;;;9.50;;
11743;SDS011;5929;51.906;7.674;2023-05-19T02:37:12;15.75;;;8.40;;
11743;SDS011;5929;51.906;7.674;2023-05-19T02:39:39;14.75;;;7.82;;
11743;SDS011;5929;51.906;7.674;2023-05-19T02:42:06;14.05;;;8.55;;
11743;SDS011;5929;51.906;7.674;2023-05-19T02:44:33;16.58;;;8.95;;
11743;SDS011;5929;51.906;7.674;2023-05-19T02:47:00;17.30;;;8.88;;
11743;SDS011;5929;51.906;7.674;2023-05-19T02:49:26;12.90;;;8.32;;
11743;SDS011;5929;51.906;7.674;2023-05-19T02:51:54;19.27;;;8.93;;
11743;SDS011;5929;51.906;7.674;2023-05-19T02:54:23;11.52;;;8.05;;
11743;SDS011;5929;51.906;7.674;2023-05-19T02:56:49;15.75;;;8.75;;
11743;SDS011;5929;51.906;7.674;2023-05-19T02:59:16;13.15;;;8.63;;
11743;SDS011;5929;51.906;7.674;2023-05-19T03:01:43;18.77;;;8.90;;
11743;SDS011;5929;51.906;7.674;2023-05-19T03:04:11;17.17;;;8.80;;
11743;SDS011;5929;51.906;7.674;2023-05-19T03:06:38;15.18;;;8.80;;
11743;SDS011;5929;51.906;7.674;2023-05-19T03:09:06;13.98;;;8.80;;
11743;SDS011;5929;51.906;7.674;2023-05-19T03:11:34;17.25;;;9.05;;
11743;SDS011;5929;51.906;7.674;2023-05-19T03:14:01;13.15;;;8.65;;
11743;SDS011;5929;51.906;7.674;2023-05-19T03:16:28;13.85;;;8.85;;
11743;SDS011;5929;51.906;7.674;2023-05-19T03:18:57;16.35;;;9.32;;
11743;SDS011;5929;51.906;7.674;2023-05-19T03:21:24;21.23;;;10.07;;
11743;SDS011;5929;51.906;7.674;2023-05-19T03:23:51;19.65;;;10.23;;
11743;SDS011;5929;51.906;7.674;2023-05-19T03:26:21;16.67;;;9.68;;
11743;SDS011;5929;51.906;7.674;2023-05-19T03:28:49;16.45;;;9.63;;
11743;SDS011;5929;51.906;7.674;2023-05-19T03:31:16;15.88;;;9.45;;
11743;SDS011;5929;51.906;7.674;2023-05-19T03:33:43;18.10;;;11.07;;
11743;SDS011;5929;51.906;7.674;2023-05-19T03:36:10;16.95;;;9.70;;
11743;SDS011;5929;51.906;7.674;2023-05-19T03:38:37;15.45;;;9.45;;
11743;SDS011;5929;51.906;7.674;2023-05-19T03:41:04;15.18;;;9.88;;
11743;SDS011;5929;51.906;7.674;2023-05-19T03:43:31;19.35;;;10.23;;
11743;SDS011;5929;51.906;7.674;2023-05-19T03:45:59;18.02;;;9.57;;
11743;SDS011;5929;51.906;7.674;2023-05-19T03:48:26;16.50;;;9.98;;
11743;SDS011;5929;51.906;7.674;2023-05-19T03:50:52;14.05;;;9.50;;
11743;SDS011;5929;51.906;7.674;2023-05-19T03:53:19;22.77;;;11.13;;
11743;SDS011;5929;51.906;7.674;2023-05-19T03:55:46;17.27;;;10.18;;
11743;SDS011;5929;51.906;7.674;2023-05-19T03:58:13;19.35;;;9.82;;
11743;SDS011;5929;51.906;7.674;2023-05-19T04:00:40;19.05;;;9.70;;
11743;SDS011;5929;51.906;7.674;2023-05-19T04:03:08;15.15;;;9.65;;
11743;SDS011;5929;51.906;7.674;2023-05-19T04:05:35;15.25;;;10.20;;
11743;SDS011;5929;51.906;7.674;2023-05-19T04:08:02;16.77;;;10.32;;
11743;SDS011;5929;51.906;7.674;2023-05-19T04:10:29;18.83;;;10.25;;
11743;SDS011;5929;51.906;7.674;2023-05-19T04:12:55;18.67;;;9.85;;
11743;SDS011;5929;51.906;7.674;2023-05-19T04:15:22;20.15;;;9.90;;
11743;SDS011;5929;51.906;7.674;2023-05-19T04:17:49;17.00;;;9.38;;
11743;SDS011;5929;51.906;7.674;2023-05-19T04:20:17;16.10;;;10.38;;
11743;SDS011;5929;51.906;7.674;2023-05-19T04:22:46;22.70;;;9.82;;
11743;SDS011;5929;51.906;7.674;2023-05-19T04:25:15;18.83;;;9.73;;
11743;SDS011;5929;51.906;7.674;2023-05-19T04:27:43;16.15;;;9.70;;
11743;SDS011;5929;51.906;7.674;2023-05-19T04:30:12;19.65;;;10.13;;
11743;SDS011;5929;51.906;7.674;2023-05-19T04:32:45;15.98;;;10.07;;
11743;SDS011;5929;51.906;7.674;2023-05-19T04:35:13;18.52;;;10.55;;
11743;SDS011;5929;51.906;7.674;2023-05-19T04:37:42;18.42;;;10.02;;
11743;SDS011;5929;51.906;7.674;2023-05-19T04:40:10;16.98;;;10.27;;
11743;SDS011;5929;51.906;7.674;2023-05-19T04:42:38;17.42;;;9.98;;
11743;SDS011;5929;51.906;7.674;2023-05-19T04:45:07;16.80;;;10.32;;
11743;SDS011;5929;51.906;7.674;2023-05-19T04:47:36;19.15;;;10.10;;
11743;SDS011;5929;51.906;7.674;2023-05-19T04:50:03;16.67;;;9.32;;
11743;SDS011;5929;51.906;7.674;2023-05-19T04:52:31;17.38;;;9.82;;
11743;SDS011;5929;51.906;7.674;2023-05-19T04:54:59;15.45;;;9.52;;
11743;SDS011;5929;51.906;7.674;2023-05-19T04:57:26;16.15;;;9.75;;
11743;SDS011;5929;51.906;7.674;2023-05-19T04:59:53;18.10;;;9.48;;
11743;SDS011;5929;51.906;7.674;2023-05-19T05:02:23;18.45;;;9.48;;
11743;SDS011;5929;51.906;7.674;2023-05-19T05:04:50;17.35;;;8.55;;
11743;SDS011;5929;51.906;7.674;2023-05-19T05:07:18;15.73;;;8.57;;
11743;SDS011;5929;51.906;7.674;2023-05-19T05:09:45;15.52;;;8.70;;
11743;SDS011;5929;51.906;7.674;2023-05-19T05:12:14;15.88;;;8.65;;
11743;SDS011;5929;51.906;7.674;2023-05-19T05:14:42;14.10;;;7.72;;
11743;SDS011;5929;51.906;7.674;2023-05-19T05:17:10;17.38;;;8.00;;
11743;SDS011;5929;51.906;7.674;2023-05-19T05:19:37;16.35;;;7.72;;
11743;SDS011;5929;51.906;7.674;2023-05-19T05:22:05;14.23;;;7.35;;
11743;SDS011;5929;51.906;7.674;2023-05-19T05:24:32;12.50;;;6.97;;
11743;SDS011;5929;51.906;7.674;2023-05-19T05:26:59;14.73;;;7.13;;
11743;SDS011;5929;51.906;7.674;2023-05-19T05:29:28;11.43;;;6.03;;
11743;SDS011;5929;51.906;7.674;2023-05-19T05:31:55;14.25;;;6.43;;
11743;SDS011;5929;51.906;7.674;2023-05-19T05:34:21;14.85;;;6.47;;
11743;SDS011;5929;51.906;7.674;2023-05-19T05:36:48;13.55;;;6.30;;
11743;SDS011;5929;51.906;7.674;2023-05-19T05:39:15;13.60;;;6.28;;
11743;SDS011;5929;51.906;7.674;2023-05-19T05:41:42;15.68;;;6.03;;
11743;SDS011;5929;51.906;7.674;2023-05-19T05:44:08;13.55;;;6.30;;
11743;SDS011;5929;51.906;7.674;2023-05-19T05:46:37;11.45;;;5.70;;
11743;SDS011;5929;51.906;7.674;2023-05-19T05:49:04;12.73;;;5.90;;
11743;SDS011;5929;51.906;7.674;2023-05-19T05:51:31;13.10;;;6.15;;
11743;SDS011;5929;51.906;7.674;2023-05-19T05:53:59;10.85;;;5.63;;
11743;SDS011;5929;51.906;7.674;2023-05-19T05:56:27;11.73;;;5.22;;
11743;SDS011;5929;51.906;7.674;2023-05-19T05:58:54;12.40;;;4.60;;
11743;SDS011;5929;51.906;7.674;2023-05-19T06:01:21;15.30;;;5.72;;
11743;SDS011;5929;51.906;7.674;2023-05-19T06:03:49;13.77;;;5.22;;
11743;SDS011;5929;51.906;7.674;2023-05-19T06:06:16;9.52;;;4.85;;
11743;SDS011;5929;51.906;7.674;2023-05-19T06:08:44;14.02;;;5.32;;
11743;SDS011;5929;51.906;7.674;2023-05-19T06:11:11;12.90;;;4.35;;
11743;SDS011;5929;51.906;7.674;2023-05-19T06:13:38;10.90;;;4.47;;
11743;SDS011;5929;51.906;7.674;2023-05-19T06:16:05;11.88;;;5.30;;
11743;SDS011;5929;51.906;7.674;2023-05-19T06:18:32;14.93;;;4.22;;
11743;SDS011;5929;51.906;7.674;2023-05-19T06:21:01;11.02;;;4.20;;
11743;SDS011;5929;51.906;7.674;2023-05-19T06:23:28;16.20;;;5.25;;
11743;SDS011;5929;51.906;7.674;2023-05-19T06:25:55;11.98;;;4.38;;
11743;SDS011;5929;51.906;7.674;2023-05-19T06:28:22;13.18;;;4.88;;
11743;SDS011;5929;51.906;7.674;2023-05-19T06:30:49;10.90;;;4.32;;
11743;SDS011;5929;51.906;7.674;2023-05-19T06:33:16;11.10;;;4.97;;
11743;SDS011;5929;51.906;7.674;2023-05-19T06:35:43;11.65;;;3.90;;
11743;SDS011;5929;51.906;7.674;2023-05-19T06:38:11;10.95;;;3.95;;
11743;SDS011;5929;51.906;7.674;2023-05-19T06:40:38;12.02;;;4.13;;
11743;SDS011;5929;51.906;7.674;2023-05-19T06:43:05;11.23;;;3.95;;
11743;SDS011;5929;51.906;7.674;2023-05-19T06:45:32;12.82;;;4.30;;
11743;SDS011;5929;51.906;7.674;2023-05-19T06:47:59;10.75;;;3.90;;
11743;SDS011;5929;51.906;7.674;2023-05-19T06:50:26;11.32;;;4.03;;
11743;SDS011;5929;51.906;7.674;2023-05-19T06:52:53;11.50;;;3.75;;
11743;SDS011;5929;51.906;7.674;2023-05-19T06:55:22;12.30;;;3.60;;
11743;SDS011;5929;51.906;7.674;2023-05-19T06:57:49;12.20;;;3.63;;
11743;SDS011;5929;51.906;7.674;2023-05-19T07:00:16;10.57;;;2.97;;
11743;SDS011;5929;51.906;7.674;2023-05-19T07:02:43;11.38;;;3.42;;
11743;SDS011;5929;51.906;7.674;2023-05-19T07:05:10;10.68;;;3.80;;
11743;SDS011;5929;51.906;7.674;2023-05-19T07:07:37;10.00;;;3.50;;
11743;SDS011;5929;51.906;7.674;2023-05-19T07:10:04;7.93;;;3.33;;
11743;SDS011;5929;51.906;7.674;2023-05-19T07:12:33;12.25;;;3.80;;
11743;SDS011;5929;51.906;7.674;2023-05-19T07:14:59;10.10;;;3.97;;
11743;SDS011;5929;51.906;7.674;2023-05-19T07:17:26;9.15;;;3.05;;
11743;SDS011;5929;51.906;7.674;2023-05-19T07:19:53;12.88;;;3.20;;
11743;SDS011;5929;51.906;7.674;2023-05-19T07:22:20;9.18;;;3.42;;
11743;SDS011;5929;51.906;7.674;2023-05-19T07:24:48;9.77;;;3.05;;
11743;SDS011;5929;51.906;7.674;2023-05-19T07:27:15;8.63;;;3.33;;
11743;SDS011;5929;51.906;7.674;2023-05-19T07:29:43;10.07;;;4.20;;
11743;SDS011;5929;51.906;7.674;2023-05-19T07:32:09;13.40;;;3.58;;
11743;SDS011;5929;51.906;7.674;2023-05-19T07:34:36;16.63;;;3.70;;
11743;SDS011;5929;51.906;7.674;2023-05-19T07:37:03;8.30;;;3.28;;
11743;SDS011;5929;51.906;7.674;2023-05-19T07:39:30;11.95;;;3.50;;
11743;SDS011;5929;51.906;7.674;2023-05-19T07:41:57;9.88;;;3.80;;
11743;SDS011;5929;51.906;7.674;2023-05-19T07:44:23;9.32;;;3.55;;
11743;SDS011;5929;51.906;7.674;2023-05-19T07:46:52;10.55;;;2.92;;
11743;SDS011;5929;51.906;7.674;2023-05-19T07:49:19;8.20;;;2.67;;
11743;SDS011;5929;51.906;7.674;2023-05-19T07:51:46;12.40;;;2.97;;
11743;SDS011;5929;51.906;7.674;2023-05-19T07:54:13;9.65;;;3.25;;
11743;SDS011;5929;51.906;7.674;2023-05-19T07:56:40;8.65;;;3.10;;
11743;SDS011;5929;51.906;7.674;2023-05-19T07:59:06;7.40;;;2.65;;
11743;SDS011;5929;51.906;7.674;2023-05-19T08:01:33;12.60;;;2.83;;
11743;SDS011;5929;51.906;7.674;2023-05-19T08:04:02;10.10;;;3.17;;
11743;SDS011;5929;51.906;7.674;2023-05-19T08:06:28;11.75;;;3.35;;
11743;SDS011;5929;51.906;7.674;2023-05-19T08:08:55;8.55;;;2.65;;
11743;SDS011;5929;51.906;7.674;2023-05-19T08:11:23;8.57;;;2.83;;
11743;SDS011;5929;51.906;7.674;2023-05-19T08:13:50;6.05;;;2.65;;
11743;SDS011;5929;51.906;7.674;2023-05-19T08:16:17;10.50;;;2.30;;
11743;SDS011;5929;51.906;7.674;2023-05-19T08:18:44;15.02;;;2.80;;
11743;SDS011;5929;51.906;7.674;2023-05-19T08:21:12;10.90;;;2.42;;
11743;SDS011;5929;51.906;7.674;2023-05-19T08:23:39;7.57;;;2.25;;
11743;SDS011;5929;51.906;7.674;2023-05-19T08:26:05;8.30;;;1.92;;
11743;SDS011;5929;51.906;7.674;2023-05-19T08:28:32;12.88;;;2.40;;
11743;SDS011;5929;51.906;7.674;2023-05-19T08:31:02;10.25;;;2.45;;
11743;SDS011;5929;51.906;7.674;2023-05-19T08:33:28;9.98;;;2.50;;
11743;SDS011;5929;51.906;7.674;2023-05-19T08:35:55;10.23;;;2.45;;
11743;SDS011;5929;51.906;7.674;2023-05-19T08:38:24;10.40;;;2.45;;
11743;SDS011;5929;51.906;7.674;2023-05-19T08:40:51;9.13;;;2.30;;
11743;SDS011;5929;51.906;7.674;2023-05-19T08:43:18;5.95;;;2.10;;
11743;SDS011;5929;51.906;7.674;2023-05-19T08:45:47;8.52;;;2.00;;
11743;SDS011;5929;51.906;7.674;2023-05-19T08:48:15;8.25;;;2.25;;
11743;SDS011;5929;51.906;7.674;2023-05-19T08:50:45;10.93;;;1.83;;
11743;SDS011;5929;51.906;7.674;2023-05-19T08:53:26;9.50;;;2.10;;
11743;SDS011;5929;51.906;7.674;2023-05-19T08:55:59;5.78;;;1.80;;
11743;SDS011;5929;51.906;7.674;2023-05-19T08:58:34;8.23;;;1.58;;
11743;SDS011;5929;51.906;7.674;2023-05-19T09:01:01;7.82;;;1.67;;
11743;SDS011;5929;51.906;7.674;2023-05-19T09:03:28;8.70;;;2.00;;
11743;SDS011;5929;51.906;7.674;2023-05-19T09:05:56;7.72;;;2.08;;
11743;SDS011;5929;51.906;7.674;2023-05-19T09:08:25;9.45;;;2.10;;
11743;SDS011;5929;51.906;7.674;2023-05-19T09:10:52;10.40;;;2.08;;
11743;SDS011;5929;51.906;7.674;2023-05-19T09:13:18;10.82;;;2.08;;
11743;SDS011;5929;51.906;7.674;2023-05-19T09:15:45;8.27;;;1.75;;
11743;SDS011;5929;51.906;7.674;2023-05-19T09:18:13;9.30;;;2.00;;
11743;SDS011;5929;51.906;7.674;2023-05-19T09:20:40;8.70;;;2.10;;
11743;SDS011;5929;51.906;7.674;2023-05-19T09:23:14;8.27;;;2.10;;
11743;SDS011;5929;51.906;7.674;2023-05-19T09:25:49;6.57;;;1.80;;
11743;SDS011;5929;51.906;7.674;2023-05-19T09:28:24;9.95;;;1.90;;
11743;SDS011;5929;51.906;7.674;2023-05-19T09:30:57;10.48;;;2.00;;
11743;SDS011;5929;51.906;7.674;2023-05-19T09:33:31;7.65;;;1.80;;
11743;SDS011;5929;51.906;7.674;2023-05-19T09:35:59;7.00;;;2.08;;
11743;SDS011;5929;51.906;7.674;2023-05-19T09:38:27;8.15;;;1.80;;
11743;SDS011;5929;51.906;7.674;2023-05-19T09:40:56;8.80;;;1.92;;
11743;SDS011;5929;51.906;7.674;2023-05-19T09:43:23;5.15;;;1.60;;
11743;SDS011;5929;51.906;7.674;2023-05-19T09:45:53;8.45;;;1.60;;
11743;SDS011;5929;51.906;7.674;2023-05-19T09:48:21;7.28;;;2.10;;
11743;SDS011;5929;51.906;7.674;2023-05-19T09:50:48;11.57;;;2.47;;
11743;SDS011;5929;51.906;7.674;2023-05-19T09:53:18;9.38;;;1.90;;
11743;SDS011;5929;51.906;7.674;2023-05-19T09:55:46;6.75;;;1.90;;
11743;SDS011;5929;51.906;7.674;2023-05-19T09:58:16;8.43;;;1.85;;
11743;SDS011;5929;51.906;7.674;2023-05-19T10:00:44;6.32;;;1.75;;
11743;SDS011;5929;51.906;7.674;2023-05-19T10:03:12;10.30;;;2.10;;
11743;SDS011;5929;51.906;7.674;2023-05-19T10:05:41;7.28;;;1.95;;
11743;SDS011;5929;51.906;7.674;2023-05-19T10:08:09;9.10;;;1.60;;
11743;SDS011;5929;51.906;7.674;2023-05-19T10:10:37;12.20;;;1.90;;
11743;SDS011;5929;51.906;7.674;2023-05-19T10:13:04;9.10;;;1.95;;
11743;SDS011;5929;51.906;7.674;2023-05-19T10:15:33;10.23;;;1.90;;
11743;SDS011;5929;51.906;7.674;2023-05-19T10:18:01;7.53;;;1.60;;
11743;SDS011;5929;51.906;7.674;2023-05-19T10:20:28;10.23;;;2.47;;
11743;SDS011;5929;51.906;7.674;2023-05-19T10:22:56;7.35;;;1.60;;
11743;SDS011;5929;51.906;7.674;2023-05-19T10:25:23;7.88;;;1.80;;
11743;SDS011;5929;51.906;7.674;2023-05-19T10:27:51;7.70;;;2.30;;
11743;SDS011;5929;51.906;7.674;2023-05-19T10:30:22;6.95;;;2.13;;
11743;SDS011;5929;51.906;7.674;2023-05-19T10:32:57;5.78;;;1.73;;
11743;SDS011;5929;51.906;7.674;2023-05-19T10:38:26;7.78;;;2.05;;
11743;SDS011;5929;51.906;7.674;2023-05-19T10:41:01;8.25;;;2.05;;
11743;SDS011;5929;51.906;7.674;2023-05-19T10:43:43;6.00;;;1.80;;
11743;SDS011;5929;51.906;7.674;2023-05-19T10:46:16;8.30;;;1.50;;
11743;SDS011;5929;51.906;7.674;2023-05-19T10:48:44;6.57;;;1.80;;
11743;SDS011;5929;51.906;7.674;2023-05-19T10:51:11;9.15;;;1.80;;
11743;SDS011;5929;51.906;7.674;2023-05-19T10:53:40;7.13;;;1.73;;
11743;SDS011;5929;51.906;7.674;2023-05-19T10:56:10;4.95;;;1.58;;
11743;SDS011;5929;51.906;7.674;2023-05-19T10:58:49;9.00;;;2.03;;
11743;SDS011;5929;51.906;7.674;2023-05-19T11:01:17;7.25;;;1.90;;
11743;SDS011;5929;51.906;7.674;2023-05-19T11:03:48;9.70;;;1.85;;
11743;SDS011;5929;51.906;7.674;2023-05-19T11:06:17;7.70;;;1.88;;
11743;SDS011;5929;51.906;7.674;2023-05-19T11:08:51;9.35;;;1.95;;
11743;SDS011;5929;51.906;7.674;2023-05-19T11:11:19;6.30;;;1.90;;
11743;SDS011;5929;51.906;7.674;2023-05-19T11:13:46;7.47;;;2.13;;
11743;SDS011;5929;51.906;7.674;2023-05-19T11:16:17;8.27;;;2.22;;
11743;SDS011;5929;51.906;7.674;2023-05-19T11:18:48;5.53;;;1.90;;
11743;SDS011;5929;51.906;7.674;2023-05-19T11:21:15;6.88;;;1.98;;
11743;SDS011;5929;51.906;7.674;2023-05-19T11:23:45;7.00;;;1.73;;
11743;SDS011;5929;51.906;7.674;2023-05-19T11:26:11;8.15;;;1.98;;
11743;SDS011;5929;51.906;7.674;2023-05-19T11:28:38;4.57;;;1.45;;
11743;SDS011;5929;51.906;7.674;2023-05-19T11:31:06;6.55;;;2.13;;
11743;SDS011;5929;51.906;7.674;2023-05-19T11:33:35;6.55;;;1.90;;
11743;SDS011;5929;51.906;7.674;2023-05-19T11:36:05;7.70;;;1.60;;
11743;SDS011;5929;51.906;7.674;2023-05-19T11:38:33;7.22;;;1.83;;
11743;SDS011;5929;51.906;7.674;2023-05-19T11:41:00;7.68;;;1.70;;
11743;SDS011;5929;51.906;7.674;2023-05-19T11:43:29;5.28;;;1.90;;
11743;SDS011;5929;51.906;7.674;2023-05-19T11:45:55;6.15;;;1.70;;
11743;SDS011;5929;51.906;7.674;2023-05-19T11:48:23;6.45;;;2.00;;
11743;SDS011;5929;51.906;7.674;2023-05-19T11:50:51;5.28;;;1.73;;
11743;SDS011;5929;51.906;7.674;2023-05-19T11:53:22;7.82;;;2.17;;
11743;SDS011;5929;51.906;7.674;2023-05-19T11:55:48;5.22;;;1.67;;
11743;SDS011;5929;51.906;7.674;2023-05-19T11:58:18;5.82;;;1.67;;
11743;SDS011;5929;51.906;7.674;2023-05-19T12:00:51;6.07;;;1.70;;
11743;SDS011;5929;51.906;7.674;2023-05-19T12:03:19;6.75;;;1.90;;
11743;SDS011;5929;51.906;7.674;2023-05-19T12:05:50;7.82;;;2.08;;
11743;SDS011;5929;51.906;7.674;2023-05-19T12:08:18;7.75;;;2.35;;
11743;SDS011;5929;51.906;7.674;2023-05-19T12:10:48;8.02;;;2.00;;
11743;SDS011;5929;51.906;7.674;2023-05-19T12:13:15;8.52;;;2.03;;
11743;SDS011;5929;51.906;7.674;2023-05-19T12:15:42;8.07;;;2.13;;
11743;SDS011;5929;51.906;7.674;2023-05-19T12:18:09;8.63;;;2.03;;
11743;SDS011;5929;51.906;7.674;2023-05-19T12:20:36;6.22;;;1.80;;
11743;SDS011;5929;51.906;7.674;2023-05-19T12:23:03;7.13;;;1.73;;
11743;SDS011;5929;51.906;7.674;2023-05-19T12:25:30;6.57;;;2.33;;
11743;SDS011;5929;51.906;7.674;2023-05-19T12:27:58;6.35;;;1.98;;
11743;SDS011;5929;51.906;7.674;2023-05-19T12:30:27;7.65;;;1.98;;
11743;SDS011;5929;51.906;7.674;2023-05-19T12:32:54;9.95;;;2.38;;
11743;SDS011;5929;51.906;7.674;2023-05-19T12:35:24;6.70;;;1.80;;
11743;SDS011;5929;51.906;7.674;2023-05-19T12:37:51;8.77;;;2.22;;
11743;SDS011;5929;51.906;7.674;2023-05-19T12:40:18;8.13;;;2.00;;
11743;SDS011;5929;51.906;7.674;2023-05-19T12:42:46;6.30;;;2.13;;
11743;SDS011;5929;51.906;7.674;2023-05-19T12:45:18;7.82;;;2.08;;
11743;SDS011;5929;51.906;7.674;2023-05-19T12:47:47;6.22;;;2.20;;
11743;SDS011;5929;51.906;7.674;2023-05-19T12:50:15;7.13;;;2.00;;
11743;SDS011;5929;51.906;7.674;2023-05-19T12:52:44;8.98;;;2.10;;
11743;SDS011;5929;51.906;7.674;2023-05-19T12:55:12;5.53;;;1.48;;
11743;SDS011;5929;51.906;7.674;2023-05-19T12:57:41;6.28;;;2.00;;
11743;SDS011;5929;51.906;7.674;2023-05-19T13:00:14;8.15;;;1.75;;
11743;SDS011;5929;51.906;7.674;2023-05-19T13:02:55;7.40;;;1.83;;
11743;SDS011;5929;51.906;7.674;2023-05-19T13:05:23;7.38;;;2.33;;
11743;SDS011;5929;51.906;7.674;2023-05-19T13:07:54;8.48;;;2.25;;
11743;SDS011;5929;51.906;7.674;2023-05-19T13:10:22;8.25;;;2.08;;
11743;SDS011;5929;51.906;7.674;2023-05-19T13:12:51;6.57;;;1.85;;
11743;SDS011;5929;51.906;7.674;2023-05-19T13:15:18;5.45;;;1.70;;
11743;SDS011;5929;51.906;7.674;2023-05-19T13:17:47;6.78;;;1.75;;
11743;SDS011;5929;51.906;7.674;2023-05-19T13:20:15;5.85;;;2.10;;
11743;SDS011;5929;51.906;7.674;2023-05-19T13:22:42;6.18;;;1.80;;
11743;SDS011;5929;51.906;7.674;2023-05-19T13:25:09;6.57;;;1.75;;
11743;SDS011;5929;51.906;7.674;2023-05-19T13:27:36;6.57;;;2.03;;
11743;SDS011;5929;51.906;7.674;2023-05-19T13:30:05;9.88;;;1.80;;
11743;SDS011;5929;51.906;7.674;2023-05-19T13:32:35;7.07;;;1.83;;
11743;SDS011;5929;51.906;7.674;2023-05-19T13:35:02;5.50;;;2.38;;
11743;SDS011;5929;51.906;7.674;2023-05-19T13:37:31;7.22;;;3.70;;
11743;SDS011;5929;51.906;7.674;2023-05-19T13:40:00;6.13;;;2.00;;
11743;SDS011;5929;51.906;7.674;2023-05-19T13:42:28;6.97;;;1.88;;
11743;SDS011;5929;51.906;7.674;2023-05-19T13:44:54;5.40;;;2.03;;
11743;SDS011;5929;51.906;7.674;2023-05-19T13:47:21;5.00;;;1.80;;
11743;SDS011;5929;51.906;7.674;2023-05-19T13:49:49;7.88;;;2.25;;
11743;SDS011;5929;51.906;7.674;2023-05-19T13:52:15;7.75;;;1.75;;
11743;SDS011;5929;51.906;7.674;2023-05-19T13:54:43;7.97;;;1.95;;
11743;SDS011;5929;51.906;7.674;2023-05-19T13:57:10;6.45;;;2.08;;
11743;SDS011;5929;51.906;7.674;2023-05-19T13:59:37;5.35;;;2.20;;
11743;SDS011;5929;51.906;7.674;2023-05-19T14:02:04;5.40;;;1.50;;
11743;SDS011;5929;51.906;7.674;2023-05-19T14:04:31;6.97;;;2.05;;
11743;SDS011;5929;51.906;7.674;2023-05-19T14:07:01;7.70;;;2.00;;
11743;SDS011;5929;51.906;7.674;2023-05-19T14:09:28;10.93;;;1.98;;
11743;SDS011;5929;51.906;7.674;2023-05-19T14:11:56;6.20;;;2.25;;
11743;SDS011;5929;51.906;7.674;2023-05-19T14:14:23;6.57;;;2.13;;
11743;SDS011;5929;51.906;7.674;2023-05-19T14:16:50;10.85;;;2.25;;
11743;SDS011;5929;51.906;7.674;2023-05-19T14:19:19;7.82;;;2.05;;
11743;SDS011;5929;51.906;7.674;2023-05-19T14:21:47;6.82;;;1.90;;
11743;SDS011;5929;51.906;7.674;2023-05-19T14:24:15;5.10;;;1.60;;
11743;SDS011;5929;51.906;7.674;2023-05-19T14:26:44;9.18;;;2.08;;
11743;SDS011;5929;51.906;7.674;2023-05-19T14:29:12;5.75;;;2.03;;
11743;SDS011;5929;51.906;7.674;2023-05-19T14:31:39;6.95;;;2.30;;
11743;SDS011;5929;51.906;7.674;2023-05-19T14:34:05;6.80;;;2.15;;
11743;SDS011;5929;51.906;7.674;2023-05-19T14:36:35;4.18;;;1.75;;
11743;SDS011;5929;51.906;7.674;2023-05-19T14:39:02;4.35;;;1.33;;
11743;SDS011;5929;51.906;7.674;2023-05-19T14:41:28;5.47;;;1.80;;
11743;SDS011;5929;51.906;7.674;2023-05-19T14:43:55;4.07;;;1.42;;
11743;SDS011;5929;51.906;7.674;2023-05-19T14:46:23;5.03;;;1.75;;
11743;SDS011;5929;51.906;7.674;2023-05-19T14:48:50;5.43;;;1.75;;
11743;SDS011;5929;51.906;7.674;2023-05-19T14:51:17;4.97;;;1.42;;
11743;SDS011;5929;51.906;7.674;2023-05-19T14:53:44;6.28;;;1.80;;
11743;SDS011;5929;51.906;7.674;2023-05-19T14:56:10;4.60;;;1.50;;
11743;SDS011;5929;51.906;7.674;2023-05-19T14:58:37;5.88;;;1.90;;
11743;SDS011;5929;51.906;7.674;2023-05-19T15:01:04;4.93;;;1.60;;
11743;SDS011;5929;51.906;7.674;2023-05-19T15:03:32;5.43;;;1.83;;